createdAt,value
2018-09-24T00:02:24.390Z,3.30
2018-09-24T00:04:52.770Z,3.20
2018-09-24T00:07:23.501Z,3.67
2018-09-24T00:09:52.708Z,3.30
2018-09-24T00:12:23.892Z,3.20
2018-09-24T00:14:52.223Z,3.80
2018-09-24T00:17:20.595Z,4.07
2018-09-24T00:19:48.921Z,4.00
2018-09-24T00:22:17.272Z,4.17
2018-09-24T00:24:46.633Z,4.60
2018-09-24T00:27:15.014Z,4.97
2018-09-24T00:29:43.354Z,4.33
2018-09-24T00:32:12.729Z,4.13
2018-09-24T00:34:41.100Z,5.23
2018-09-24T00:37:10.461Z,4.37
2018-09-24T00:39:38.821Z,5.13
2018-09-24T00:42:07.166Z,4.77
2018-09-24T00:44:37.488Z,5.07
2018-09-24T00:47:06.783Z,4.60
2018-09-24T00:49:35.557Z,3.90
2018-09-24T00:52:05.880Z,4.17
2018-09-24T00:54:35.621Z,4.40
2018-09-24T00:57:05.616Z,4.73
2018-09-24T00:59:35.606Z,5.17
2018-09-24T01:02:05.100Z,5.40
2018-09-24T01:04:35.097Z,4.43
2018-09-24T01:07:05.266Z,5.80
2018-09-24T01:09:34.343Z,4.67
2018-09-24T01:12:03.642Z,5.40
2018-09-24T01:14:32.897Z,5.30
2018-09-24T01:17:02.238Z,5.90
2018-09-24T01:19:31.454Z,4.67
2018-09-24T01:21:59.776Z,5.10
2018-09-24T01:24:28.098Z,4.40
2018-09-24T01:26:56.448Z,4.73
2018-09-24T01:29:25.613Z,4.40
2018-09-24T01:31:54.535Z,4.60
2018-09-24T01:34:23.467Z,4.57
2018-09-24T01:36:51.916Z,5.27
2018-09-24T01:39:20.261Z,4.47
2018-09-24T01:41:48.705Z,5.40
2018-09-24T01:44:17.036Z,4.20
2018-09-24T01:46:45.469Z,4.20
2018-09-24T01:49:14.100Z,5.00
2018-09-24T01:51:42.421Z,5.57
2018-09-24T01:54:10.744Z,5.30
2018-09-24T01:56:39.221Z,4.20
2018-09-24T01:59:07.551Z,4.80
2018-09-24T02:01:37.570Z,4.93
2018-09-24T02:04:06.718Z,4.53
2018-09-24T02:06:36.070Z,4.17
2018-09-24T02:09:05.914Z,4.60
2018-09-24T02:11:34.813Z,3.87
2018-09-24T02:14:03.135Z,4.73
2018-09-24T02:16:31.470Z,4.70
2018-09-24T02:19:00.303Z,4.40
2018-09-24T02:21:28.681Z,4.10
2018-09-24T02:24:01.677Z,4.50
2018-09-24T02:26:29.998Z,3.80
2018-09-24T02:28:59.349Z,4.13
2018-09-24T02:31:28.718Z,4.00
2018-09-24T02:33:57.961Z,3.60
2018-09-24T02:36:27.185Z,2.93
2018-09-24T02:38:56.458Z,3.00
2018-09-24T02:41:25.810Z,3.33
2018-09-24T02:43:56.146Z,2.57
2018-09-24T02:46:26.481Z,3.20
2018-09-24T02:48:59.626Z,4.37
2018-09-24T02:51:28.005Z,2.60
2018-09-24T02:53:57.365Z,3.10
2018-09-24T02:56:26.581Z,2.07
2018-09-24T02:58:55.869Z,2.60
2018-09-24T03:01:25.942Z,4.10
2018-09-24T03:03:55.645Z,2.27
2018-09-24T03:06:25.032Z,3.10
2018-09-24T03:08:54.441Z,2.60
2018-09-24T03:11:22.813Z,2.60
2018-09-24T03:13:54.059Z,2.47
2018-09-24T03:16:23.305Z,2.17
2018-09-24T03:18:58.606Z,3.43
2018-09-24T03:21:28.102Z,2.10
2018-09-24T03:23:56.438Z,2.83
2018-09-24T03:26:26.630Z,2.60
2018-09-24T03:28:55.299Z,2.37
2018-09-24T03:31:25.500Z,2.20
2018-09-24T03:33:55.164Z,2.10
2018-09-24T03:36:25.525Z,1.97
2018-09-24T03:38:55.970Z,2.50
2018-09-24T03:41:26.273Z,2.30
2018-09-24T03:43:54.653Z,1.90
2018-09-24T03:46:23.694Z,2.20
2018-09-24T03:48:52.013Z,1.97
2018-09-24T03:51:21.393Z,2.80
2018-09-24T03:53:49.717Z,1.60
2018-09-24T03:56:19.038Z,1.60
2018-09-24T03:58:47.478Z,2.10
2018-09-24T04:01:16.700Z,1.67
2018-09-24T04:03:45.060Z,1.83
2018-09-24T04:06:19.645Z,2.20
2018-09-24T04:08:54.472Z,1.90
2018-09-24T04:11:29.180Z,2.07
2018-09-24T04:14:02.917Z,1.73
2018-09-24T04:16:37.695Z,1.80
2018-09-24T04:19:12.430Z,1.53
2018-09-24T04:21:46.069Z,1.47
2018-09-24T04:24:19.830Z,1.77
2018-09-24T04:26:54.723Z,1.70
2018-09-24T04:29:28.540Z,1.93
2018-09-24T04:32:02.194Z,1.80
2018-09-24T04:34:35.923Z,1.97
2018-09-24T04:37:11.578Z,2.30
2018-09-24T04:39:46.287Z,1.97
2018-09-24T04:42:20.077Z,1.70
2018-09-24T04:44:54.881Z,1.93
2018-09-24T04:47:29.586Z,2.07
2018-09-24T04:50:05.125Z,1.90
2018-09-24T04:52:39.839Z,1.80
2018-09-24T04:55:13.640Z,2.20
2018-09-24T04:57:48.353Z,2.10
2018-09-24T05:00:22.028Z,3.37
2018-09-24T05:02:56.621Z,2.30
2018-09-24T05:05:31.753Z,1.43
2018-09-24T05:08:06.295Z,1.57
2018-09-24T05:10:39.929Z,2.73
2018-09-24T05:13:13.897Z,2.07
2018-09-24T05:15:47.718Z,1.80
2018-09-24T05:18:21.301Z,1.83
2018-09-24T05:20:54.869Z,1.93
2018-09-24T05:23:28.613Z,1.97
2018-09-24T05:26:02.185Z,2.37
2018-09-24T05:28:35.929Z,2.07
2018-09-24T05:31:09.914Z,2.00
2018-09-24T05:33:43.611Z,1.57
2018-09-24T05:36:17.376Z,1.30
2018-09-24T05:38:51.062Z,1.77
2018-09-24T05:41:24.816Z,2.63
2018-09-24T05:43:58.393Z,3.13
2018-09-24T05:46:32.536Z,1.40
2018-09-24T05:49:06.234Z,1.83
2018-09-24T05:51:39.977Z,1.70
2018-09-24T05:54:13.787Z,1.67
2018-09-24T05:56:47.387Z,1.53
2018-09-24T05:59:21.126Z,1.67
2018-09-24T06:01:54.805Z,1.80
2018-09-24T06:04:28.501Z,1.70
2018-09-24T06:07:02.210Z,3.50
2018-09-24T06:09:36.997Z,2.93
2018-09-24T06:12:11.520Z,2.33
2018-09-24T06:14:45.034Z,1.47
2018-09-24T06:17:18.748Z,2.07
2018-09-24T06:19:52.445Z,1.77
2018-09-24T06:22:26.107Z,1.50
2018-09-24T06:24:59.897Z,1.67
2018-09-24T06:27:34.169Z,1.90
2018-09-24T06:30:07.889Z,1.90
2018-09-24T06:32:42.429Z,1.30
2018-09-24T06:35:16.045Z,1.40
2018-09-24T06:37:50.789Z,1.83
2018-09-24T06:40:25.502Z,1.37
2018-09-24T06:43:01.145Z,1.53
2018-09-24T06:45:35.184Z,1.50
2018-09-24T06:48:08.856Z,2.00
2018-09-24T06:50:42.645Z,1.40
2018-09-24T06:53:16.337Z,1.40
2018-09-24T06:55:49.905Z,1.80
2018-09-24T06:58:24.702Z,1.60
2018-09-24T07:00:58.300Z,2.97
2018-09-24T07:03:32.107Z,1.90
2018-09-24T07:06:06.863Z,1.73
2018-09-24T07:08:40.568Z,1.60
2018-09-24T07:11:15.360Z,1.20
2018-09-24T07:13:55.709Z,1.47
2018-09-24T07:16:31.445Z,2.20
2018-09-24T07:19:06.049Z,1.40
2018-09-24T07:21:39.777Z,1.30
2018-09-24T07:24:14.361Z,1.47
2018-09-24T07:26:47.913Z,1.30
2018-09-24T07:29:21.630Z,1.53
2018-09-24T07:31:56.369Z,1.43
2018-09-24T07:34:32.546Z,1.40
2018-09-24T07:37:06.256Z,1.80
2018-09-24T07:39:41.953Z,1.40
2018-09-24T07:42:15.417Z,1.23
2018-09-24T07:44:49.164Z,1.53
2018-09-24T07:47:25.450Z,1.53
2018-09-24T07:50:00.257Z,1.40
2018-09-24T07:52:34.858Z,1.40
2018-09-24T07:55:09.582Z,1.70
2018-09-24T07:57:43.369Z,1.43
2018-09-24T08:00:18.161Z,1.97
2018-09-24T08:02:53.709Z,1.77
2018-09-24T08:05:28.273Z,1.30
2018-09-24T08:08:03.007Z,1.70
2018-09-24T08:10:37.766Z,1.30
2018-09-24T08:13:12.389Z,1.43
2018-09-24T08:15:46.189Z,1.90
2018-09-24T08:18:21.041Z,2.10
2018-09-24T08:20:55.671Z,1.40
2018-09-24T08:23:31.399Z,1.97
2018-09-24T08:26:05.985Z,1.53
2018-09-24T08:28:41.675Z,1.70
2018-09-24T08:31:15.300Z,1.40
2018-09-24T08:33:49.032Z,1.07
2018-09-24T08:36:22.799Z,1.70
2018-09-24T08:38:56.409Z,1.50
2018-09-24T08:41:29.981Z,1.77
2018-09-24T08:44:05.165Z,1.30
2018-09-24T08:46:38.732Z,1.33
2018-09-24T08:49:13.413Z,1.50
2018-09-24T08:51:47.100Z,1.67
2018-09-24T08:54:21.942Z,1.53
2018-09-24T08:56:55.754Z,1.73
2018-09-24T08:59:31.469Z,1.40
2018-09-24T09:02:05.249Z,1.30
2018-09-24T09:04:39.937Z,1.70
2018-09-24T09:07:13.692Z,1.60
2018-09-24T09:09:48.617Z,1.37
2018-09-24T09:12:23.520Z,1.50
2018-09-24T09:14:58.359Z,1.40
2018-09-24T09:17:32.979Z,1.10
2018-09-24T09:20:07.725Z,2.23
2018-09-24T09:22:42.392Z,1.33
2018-09-24T09:25:17.128Z,1.83
2018-09-24T09:27:51.801Z,1.20
2018-09-24T09:30:26.495Z,1.27
2018-09-24T09:33:02.159Z,1.60
2018-09-24T09:35:36.902Z,1.67
2018-09-24T09:38:12.717Z,1.47
2018-09-24T09:40:47.573Z,1.20
2018-09-24T09:43:22.320Z,1.17
2018-09-24T09:45:57.073Z,1.53
2018-09-24T09:48:31.890Z,2.20
2018-09-24T09:51:06.461Z,1.67
2018-09-24T09:53:40.410Z,1.03
2018-09-24T09:56:14.187Z,1.30
2018-09-24T09:58:48.749Z,1.00
2018-09-24T10:01:23.821Z,1.80
2018-09-24T10:03:58.446Z,2.03
2018-09-24T10:06:32.136Z,1.27
2018-09-24T10:09:05.710Z,1.30
2018-09-24T10:11:40.291Z,1.17
2018-09-24T10:14:14.033Z,1.17
2018-09-24T10:16:47.689Z,1.60
2018-09-24T10:19:22.412Z,1.30
2018-09-24T10:21:57.009Z,1.80
2018-09-24T10:24:33.220Z,1.60
2018-09-24T10:27:07.851Z,1.90
2018-09-24T10:29:42.865Z,1.73
2018-09-24T10:32:17.499Z,1.50
2018-09-24T10:34:52.079Z,2.10
2018-09-24T10:37:25.793Z,1.60
2018-09-24T10:39:59.356Z,1.30
2018-09-24T10:42:32.949Z,1.40
2018-09-24T10:45:06.493Z,1.33
2018-09-24T10:47:40.182Z,1.40
2018-09-24T10:50:13.855Z,1.10
2018-09-24T10:52:47.624Z,1.40
2018-09-24T10:55:21.341Z,1.00
2018-09-24T10:57:55.109Z,1.20
2018-09-24T11:00:28.826Z,1.53
2018-09-24T11:03:02.440Z,1.53
2018-09-24T11:05:36.152Z,1.60
2018-09-24T11:08:09.893Z,1.30
2018-09-24T11:10:43.589Z,0.90
2018-09-24T11:13:17.287Z,1.20
2018-09-24T11:15:51.097Z,0.97
2018-09-24T11:18:24.747Z,1.00
2018-09-24T11:20:58.254Z,1.10
2018-09-24T11:23:33.066Z,1.20
2018-09-24T11:26:06.785Z,1.10
2018-09-24T11:28:42.540Z,1.17
2018-09-24T11:31:16.265Z,0.80
2018-09-24T11:33:50.792Z,0.90
2018-09-24T11:36:24.492Z,1.10
2018-09-24T11:38:59.209Z,1.27
2018-09-24T11:41:32.889Z,1.07
2018-09-24T11:44:07.563Z,0.90
2018-09-24T11:46:42.221Z,1.03
2018-09-24T11:49:16.997Z,1.00
2018-09-24T11:51:51.748Z,1.17
2018-09-24T11:54:26.456Z,1.13
2018-09-24T11:57:00.025Z,1.10
2018-09-24T11:59:34.729Z,1.10
2018-09-24T12:02:09.268Z,1.17
2018-09-24T12:04:43.996Z,0.90
2018-09-24T12:07:18.771Z,1.30
2018-09-24T12:09:53.899Z,1.20
2018-09-24T12:12:28.585Z,0.87
2018-09-24T12:15:03.268Z,0.80
2018-09-24T12:17:37.993Z,0.80
2018-09-24T12:20:12.585Z,0.90
2018-09-24T12:22:47.249Z,1.00
2018-09-24T12:25:20.869Z,1.40
2018-09-24T12:27:54.570Z,1.07
2018-09-24T12:30:29.226Z,0.97
2018-09-24T12:33:05.061Z,1.00
2018-09-24T12:35:39.706Z,1.30
2018-09-24T12:38:14.428Z,1.10
2018-09-24T12:40:49.201Z,1.10
2018-09-24T12:43:24.910Z,1.43
2018-09-24T12:45:59.505Z,0.80
2018-09-24T12:48:34.740Z,1.00
2018-09-24T12:51:08.504Z,0.80
2018-09-24T12:53:42.476Z,1.33
2018-09-24T12:56:17.149Z,0.80
2018-09-24T12:58:51.434Z,0.80
2018-09-24T13:01:26.039Z,1.00
2018-09-24T13:03:59.835Z,1.00
2018-09-24T13:06:35.643Z,0.97
2018-09-24T13:09:09.276Z,1.10
2018-09-24T13:11:44.090Z,0.80
2018-09-24T13:14:17.796Z,1.43
2018-09-24T13:16:52.424Z,0.77
2018-09-24T13:19:26.142Z,0.70
2018-09-24T13:22:00.834Z,0.90
2018-09-24T13:24:36.094Z,0.90
2018-09-24T13:27:12.021Z,0.90
2018-09-24T13:29:45.708Z,0.90
2018-09-24T13:32:20.442Z,1.00
2018-09-24T13:34:55.166Z,1.47
2018-09-24T13:37:29.742Z,1.10
2018-09-24T13:40:05.369Z,1.20
2018-09-24T13:42:39.157Z,1.40
2018-09-24T13:45:13.871Z,1.30
2018-09-24T13:47:48.418Z,1.10
2018-09-24T13:50:23.932Z,1.17
2018-09-24T13:52:58.501Z,1.87
2018-09-24T13:55:40.310Z,2.00
2018-09-24T13:58:14.393Z,2.30
2018-09-24T14:00:49.176Z,1.90
2018-09-24T14:03:25.052Z,1.13
2018-09-24T14:05:59.644Z,2.20
2018-09-24T14:08:34.991Z,0.90
2018-09-24T14:11:09.612Z,1.37
2018-09-24T14:13:43.232Z,1.37
2018-09-24T14:16:17.834Z,1.30
2018-09-24T14:18:51.619Z,1.30
2018-09-24T14:21:25.571Z,1.10
2018-09-24T14:24:00.248Z,1.20
2018-09-24T14:26:33.887Z,1.73
2018-09-24T14:29:07.573Z,2.30
2018-09-24T14:31:41.781Z,2.40
2018-09-24T14:34:15.369Z,1.90
2018-09-24T14:36:48.952Z,1.97
2018-09-24T14:39:22.632Z,1.90
2018-09-24T14:41:57.154Z,1.70
2018-09-24T14:44:31.518Z,1.60
2018-09-24T14:47:05.252Z,1.60
2018-09-24T14:49:38.907Z,1.50
2018-09-24T14:52:12.885Z,1.80
2018-09-24T14:54:46.585Z,2.03
2018-09-24T14:57:20.152Z,1.93
2018-09-24T14:59:54.553Z,1.97
2018-09-24T15:02:28.370Z,1.30
2018-09-24T15:05:02.116Z,2.00
2018-09-24T15:07:36.876Z,1.77
2018-09-24T15:10:10.521Z,1.70
2018-09-24T15:12:44.286Z,1.40
2018-09-24T15:15:17.877Z,1.40
2018-09-24T15:17:51.655Z,1.00
2018-09-24T15:20:25.293Z,0.90
2018-09-24T15:22:58.929Z,1.17
2018-09-24T15:25:35.301Z,0.80
2018-09-24T15:28:08.964Z,0.80
2018-09-24T15:30:43.137Z,1.00
2018-09-24T15:33:16.699Z,1.00
2018-09-24T15:35:50.442Z,1.00
2018-09-24T15:38:25.251Z,0.90
2018-09-24T15:40:59.036Z,1.03
2018-09-24T15:43:32.775Z,1.20
2018-09-24T15:46:06.445Z,0.93
2018-09-24T15:48:40.077Z,1.10
2018-09-24T15:51:13.696Z,1.30
2018-09-24T15:53:47.552Z,1.20
2018-09-24T15:56:21.257Z,1.47
2018-09-24T15:58:54.895Z,1.27
2018-09-24T16:01:28.710Z,1.60
2018-09-24T16:04:02.313Z,1.20
2018-09-24T16:06:35.901Z,5.50
2018-09-24T16:09:10.477Z,3.30
2018-09-24T16:11:44.240Z,4.83
2018-09-24T16:14:17.938Z,3.07
2018-09-24T16:16:52.716Z,1.80
2018-09-24T16:19:27.486Z,1.37
2018-09-24T16:22:02.262Z,1.77
2018-09-24T16:24:36.020Z,1.80
2018-09-24T16:27:11.061Z,1.90
2018-09-24T16:29:45.806Z,3.50
2018-09-24T16:32:20.470Z,3.53
2018-09-24T16:34:55.098Z,2.87
2018-09-24T16:37:29.931Z,2.13
2018-09-24T16:40:05.301Z,2.53
2018-09-24T16:42:40.001Z,1.93
2018-09-24T16:45:14.717Z,2.20
2018-09-24T16:47:49.302Z,1.70
2018-09-24T16:50:23.087Z,1.50
2018-09-24T16:52:57.808Z,1.13
2018-09-24T16:55:32.297Z,2.90
2018-09-24T16:58:07.057Z,1.47
2018-09-24T17:00:41.371Z,1.20
2018-09-24T17:03:15.002Z,1.40
2018-09-24T17:05:48.750Z,1.20
2018-09-24T17:08:22.486Z,1.40
2018-09-24T17:10:56.234Z,3.40
2018-09-24T17:13:30.753Z,1.60
2018-09-24T17:16:05.033Z,1.80
2018-09-24T17:18:38.759Z,1.40
2018-09-24T17:21:12.501Z,1.40
2018-09-24T17:23:47.248Z,0.93
2018-09-24T17:26:20.990Z,1.93
2018-09-24T17:28:54.702Z,1.53
2018-09-24T17:31:28.413Z,1.40
2018-09-24T17:34:03.225Z,0.80
2018-09-24T17:36:37.000Z,1.10
2018-09-24T17:39:13.589Z,0.90
2018-09-24T17:41:47.429Z,1.07
2018-09-24T17:44:21.353Z,1.20
2018-09-24T17:46:56.208Z,0.70
2018-09-24T17:49:30.087Z,0.83
2018-09-24T17:52:03.813Z,1.33
2018-09-24T17:54:37.622Z,0.90
2018-09-24T17:57:12.266Z,0.90
2018-09-24T17:59:46.983Z,0.70
2018-09-24T18:02:20.634Z,1.10
2018-09-24T18:04:54.710Z,1.17
2018-09-24T18:07:28.533Z,2.07
2018-09-24T18:10:02.300Z,1.10
2018-09-24T18:12:37.066Z,1.03
2018-09-24T18:15:11.718Z,0.87
2018-09-24T18:17:45.407Z,0.97
2018-09-24T18:20:19.128Z,1.50
2018-09-24T18:22:54.506Z,1.20
2018-09-24T18:25:29.251Z,1.27
2018-09-24T18:28:05.052Z,0.90
2018-09-24T18:30:39.621Z,0.90
2018-09-24T18:33:14.377Z,1.13
2018-09-24T18:35:48.050Z,1.40
2018-09-24T18:38:22.633Z,1.07
2018-09-24T18:40:56.296Z,1.00
2018-09-24T18:43:31.772Z,0.97
2018-09-24T18:46:05.948Z,0.80
2018-09-24T18:48:39.840Z,0.97
2018-09-24T18:51:14.653Z,1.00
2018-09-24T18:53:49.445Z,0.80
2018-09-24T18:56:23.248Z,0.80
2018-09-24T18:58:57.865Z,0.90
2018-09-24T19:01:32.401Z,0.90
2018-09-24T19:04:07.226Z,0.97
2018-09-24T19:06:43.208Z,1.20
2018-09-24T19:09:17.979Z,1.20
2018-09-24T19:11:52.758Z,0.97
2018-09-24T19:14:27.553Z,0.97
2018-09-24T19:17:02.328Z,1.03
2018-09-24T19:19:36.749Z,1.10
2018-09-24T19:22:12.062Z,1.10
2018-09-24T19:24:46.630Z,1.03
2018-09-24T19:27:20.186Z,1.00
2018-09-24T19:29:54.532Z,0.97
2018-09-24T19:32:29.330Z,1.10
2018-09-24T19:35:02.922Z,0.90
2018-09-24T19:37:37.567Z,1.07
2018-09-24T19:40:12.514Z,1.00
2018-09-24T19:42:46.215Z,1.60
2018-09-24T19:45:20.837Z,1.20
2018-09-24T19:47:54.617Z,0.77
2018-09-24T19:50:28.272Z,1.00
2018-09-24T19:53:02.789Z,1.53
2018-09-24T19:55:36.353Z,1.40
2018-09-24T19:58:10.098Z,1.20
2018-09-24T20:00:43.792Z,1.10
2018-09-24T20:03:17.557Z,1.07
2018-09-24T20:05:51.175Z,1.40
2018-09-24T20:08:24.968Z,1.20
2018-09-24T20:10:59.717Z,0.97
2018-09-24T20:13:34.176Z,1.23
2018-09-24T20:16:07.853Z,1.03
2018-09-24T20:18:42.533Z,0.97
2018-09-24T20:21:16.128Z,1.03
2018-09-24T20:23:50.070Z,1.10
2018-09-24T20:26:24.175Z,0.93
2018-09-24T20:28:58.752Z,0.73
2018-09-24T20:31:32.448Z,1.23
2018-09-24T20:34:06.064Z,1.90
2018-09-24T20:36:39.638Z,1.27
2018-09-24T20:39:14.066Z,1.40
2018-09-24T20:41:48.974Z,1.00
2018-09-24T20:44:24.215Z,1.10
2018-09-24T20:46:58.258Z,1.37
2018-09-24T20:49:32.639Z,1.17
2018-09-24T20:52:06.389Z,1.50
2018-09-24T20:54:39.971Z,1.10
2018-09-24T20:57:13.654Z,1.17
2018-09-24T20:59:48.265Z,1.13
2018-09-24T21:02:22.125Z,0.93
2018-09-24T21:04:55.923Z,1.50
2018-09-24T21:07:31.517Z,1.33
2018-09-24T21:10:06.213Z,1.10
2018-09-24T21:12:39.785Z,0.97
2018-09-24T21:15:13.519Z,1.40
2018-09-24T21:17:48.253Z,1.07
2018-09-24T21:20:22.004Z,1.10
2018-09-24T21:22:56.773Z,1.23
2018-09-24T21:25:32.514Z,0.93
2018-09-24T21:28:06.233Z,0.83
2018-09-24T21:30:41.700Z,1.40
2018-09-24T21:33:16.360Z,1.40
2018-09-24T21:35:50.233Z,0.90
2018-09-24T21:38:23.957Z,1.33
2018-09-24T21:40:57.689Z,1.10
2018-09-24T21:43:32.456Z,1.10
2018-09-24T21:46:06.291Z,0.97
2018-09-24T21:48:41.759Z,1.13
2018-09-24T21:51:16.537Z,0.90
2018-09-24T21:53:51.202Z,1.00
2018-09-24T21:56:25.946Z,1.27
2018-09-24T21:59:00.637Z,1.20
2018-09-24T22:01:35.225Z,1.73
2018-09-24T22:04:09.000Z,1.10
2018-09-24T22:06:43.785Z,1.00
2018-09-24T22:09:18.512Z,1.47
2018-09-24T22:11:52.262Z,1.27
2018-09-24T22:14:26.837Z,1.47
2018-09-24T22:17:02.616Z,1.43
2018-09-24T22:19:36.334Z,1.20
2018-09-24T22:22:09.920Z,1.47
2018-09-24T22:24:43.538Z,1.23
2018-09-24T22:27:17.249Z,1.40
2018-09-24T22:29:51.089Z,1.30
2018-09-24T22:32:24.796Z,1.37
2018-09-24T22:34:59.524Z,1.30
2018-09-24T22:37:33.161Z,1.23
2018-09-24T22:40:06.765Z,1.60
2018-09-24T22:42:42.032Z,1.67
2018-09-24T22:45:15.789Z,1.70
2018-09-24T22:47:50.528Z,1.60
2018-09-24T22:50:25.261Z,1.97
2018-09-24T22:52:59.833Z,1.60
2018-09-24T22:55:40.325Z,1.50
2018-09-24T22:58:15.193Z,1.73
2018-09-24T23:00:49.066Z,1.30
2018-09-24T23:03:22.865Z,1.30
2018-09-24T23:05:56.524Z,1.83
2018-09-24T23:08:30.241Z,1.60
2018-09-24T23:11:05.045Z,1.70
2018-09-24T23:13:39.629Z,1.93
2018-09-24T23:16:14.328Z,1.40
2018-09-24T23:18:49.017Z,2.00
2018-09-24T23:21:22.765Z,2.30
2018-09-24T23:23:56.481Z,1.77
2018-09-24T23:26:30.802Z,1.50
2018-09-24T23:29:05.633Z,1.97
2018-09-24T23:31:40.419Z,1.53
2018-09-24T23:34:15.229Z,1.83
2018-09-24T23:36:50.072Z,2.20
2018-09-24T23:39:24.789Z,1.90
2018-09-24T23:41:59.609Z,1.50
2018-09-24T23:44:34.842Z,2.03
2018-09-24T23:47:09.426Z,1.50
2018-09-24T23:49:42.997Z,1.43
2018-09-24T23:52:17.833Z,2.17
2018-09-24T23:54:52.577Z,1.53
2018-09-24T23:57:26.341Z,2.10
